Time;durP1;ratioP1;P1;durP2;ratioP2;P2;SDS_P1;SDS_P2;PMS_P1;PMS_P2;Temp;Humidity;BMP_temperature;BMP_pressure;BME280_temperature;BME280_humidity;BME280_pressure;Samples;Min_cycle;Max_cycle;Signal;HPM_P1;HPM_P2
2022/05/25 00:00:09;;;;;;;;;;;;;;;12.59;100.00;95541.94;1026671;28;19914;-73
2022/05/25 00:00:39;;;;;;;;;;;;;;;12.58;100.00;95543.00;1023244;28;19917;-74
2022/05/25 00:01:10;;;;;;;;;;;;;;;12.57;100.00;95541.41;1030789;28;19917;-76
2022/05/25 00:01:43;;;;;;;;;;;;;;;12.57;100.00;95536.16;1022861;28;19952;-73
2022/05/25 00:02:17;;;;;;;;;;;;;;;12.57;100.00;95544.03;1023790;28;19906;-73
2022/05/25 00:02:47;;;;;;;;;;;;;;;12.57;100.00;95541.41;1022927;29;20380;-73
2022/05/25 00:03:18;;;;;;;;;;;;;;;12.55;100.00;95538.28;1024472;28;19919;-74
2022/05/25 00:03:48;;;;;;;;;;;;;;;12.53;100.00;95535.16;1030747;28;19949;-74
2022/05/25 00:04:19;;;;;;;;;;;;;;;12.52;100.00;95533.59;1027365;28;20038;-73
2022/05/25 00:04:52;;;;;;;;;;;;;;;12.50;100.00;95537.25;1030408;28;19921;-73
2022/05/25 00:05:23;;;;;;;;;;;;;;;12.52;100.00;95534.38;1030677;28;19960;-74
2022/05/25 00:05:53;;;;;;;;;;;;;;;12.50;100.00;95528.59;1027390;28;20019;-72
2022/05/25 00:06:24;;;;;;;;;;;;;;;12.50;100.00;95534.63;1026420;28;20423;-72
2022/05/25 00:06:54;;;;;;;;;;;;;;;12.49;100.00;95540.97;1022998;28;19911;-73
2022/05/25 00:07:24;;;;;;;;;;;;;;;12.49;100.00;95540.19;1022612;28;19911;-73
2022/05/25 00:07:55;;;;;;;;;;;;;;;12.49;100.00;95534.91;1026716;28;19914;-74
2022/05/25 00:08:25;;;;;;;;;;;;;;;12.47;100.00;95529.94;1033188;28;19913;-74
2022/05/25 00:08:55;;;;;;;;;;;;;;;12.49;100.00;95540.97;1034679;28;20526;-73
2022/05/25 00:09:26;;;;;;;;;;;;;;;12.47;100.00;95532.59;1030413;28;19906;-73
2022/05/25 00:09:56;;;;;;;;;;;;;;;12.47;100.00;95537.84;1021589;29;20017;-74
2022/05/25 00:10:26;;;;;;;;;;;;;;;12.46;100.00;95536.25;1022533;29;19996;-73
2022/05/25 00:10:57;;;;;;;;;;;;;;;12.48;100.00;95541.25;1018661;29;19918;-72
2022/05/25 00:11:27;;;;;;;;;;;;;;;12.47;100.00;95537.84;1026574;28;20477;-73
2022/05/25 00:11:57;;;;;;;;;;;;;;;12.47;100.00;95545.75;1030251;28;19906;-73
2022/05/25 00:12:28;;;;;;;;;;;;;;;12.47;100.00;95543.13;1030533;28;19922;-74
2022/05/25 00:12:58;;;;;;;;;;;;;;;12.47;100.00;95540.47;1034630;28;20239;-74
2022/05/25 00:13:29;;;;;;;;;;;;;;;12.47;100.00;95543.13;1030573;28;20514;-74
2022/05/25 00:13:59;;;;;;;;;;;;;;;12.47;100.00;95537.03;1030505;28;19918;-74
2022/05/25 00:14:29;;;;;;;;;;;;;;;12.48;100.00;95543.88;1030757;28;19925;-74
2022/05/25 00:15:00;;;;;;;;;;;;;;;12.48;100.00;95544.66;1030615;28;20701;-75
2022/05/25 00:15:30;;;;;;;;;;;;;;;12.49;100.00;95545.44;1026605;28;19910;-73
2022/05/25 00:16:00;;;;;;;;;;;;;;;12.50;100.00;95536.47;1030542;28;19954;-75
2022/05/25 00:16:31;;;;;;;;;;;;;;;12.49;100.00;95540.97;1030792;28;19956;-73
2022/05/25 00:17:01;;;;;;;;;;;;;;;12.49;100.00;95535.72;1022553;28;19914;-74
2022/05/25 00:17:32;;;;;;;;;;;;;;;12.48;100.00;95536.78;1030736;28;19956;-75
2022/05/25 00:18:02;;;;;;;;;;;;;;;12.49;100.00;95540.19;1026369;28;19922;-73
2022/05/25 00:18:32;;;;;;;;;;;;;;;12.48;100.00;95536.78;1026822;28;19914;-75
2022/05/25 00:20:00;;;;;;;;;;;;;;;12.46;100.00;95538.88;1024394;28;19914;-73
2022/05/25 00:20:31;;;;;;;;;;;;;;;12.46;100.00;95538.13;1022637;29;19958;-74
2022/05/25 00:21:04;;;;;;;;;;;;;;;12.46;100.00;95538.88;1033446;28;19909;-74
2022/05/25 00:21:34;;;;;;;;;;;;;;;12.46;100.00;95528.38;1026687;28;19946;-73
2022/05/25 00:22:04;;;;;;;;;;;;;;;12.46;100.00;95536.25;1022280;28;19970;-74
2022/05/25 00:22:40;;;;;;;;;;;;;;;12.47;100.00;95531.78;1018948;29;19953;-73
2022/05/25 00:23:10;;;;;;;;;;;;;;;12.47;100.00;95537.84;1027181;28;20013;-73
2022/05/25 00:23:40;;;;;;;;;;;;;;;12.47;100.00;95537.84;1031189;28;19912;-72
2022/05/25 00:24:13;;;;;;;;;;;;;;;12.48;100.00;95539.41;1033865;28;19937;-76
2022/05/25 00:24:43;;;;;;;;;;;;;;;12.47;100.00;95537.84;1027656;28;20263;-76
2022/05/25 00:25:15;;;;;;;;;;;;;;;12.47;100.00;95542.31;1030678;28;19917;-74
2022/05/25 00:25:46;;;;;;;;;;;;;;;12.47;100.00;95543.13;1026332;28;20362;-73
2022/05/25 00:26:17;;;;;;;;;;;;;;;12.47;100.00;95543.13;1026638;28;19916;-73
2022/05/25 00:26:47;;;;;;;;;;;;;;;12.46;100.00;95541.53;1030577;28;19910;-73
2022/05/25 00:27:17;;;;;;;;;;;;;;;12.47;100.00;95542.31;1026757;28;19915;-73
2022/05/25 00:27:48;;;;;;;;;;;;;;;12.48;100.00;95536.00;1026662;28;19910;-73
2022/05/25 00:28:18;;;;;;;;;;;;;;;12.48;100.00;95538.63;1026607;28;19910;-73
2022/05/25 00:28:51;;;;;;;;;;;;;;;12.47;100.00;95535.22;1022884;28;19906;-73
2022/05/25 00:29:21;;;;;;;;;;;;;;;12.47;100.00;95543.13;1027394;28;19918;-73
2022/05/25 00:29:51;;;;;;;;;;;;;;;12.48;100.00;95536.78;1022796;28;19953;-74
2022/05/25 00:30:22;;;;;;;;;;;;;;;12.46;100.00;95536.25;1023405;29;20288;-74
2022/05/25 00:30:52;;;;;;;;;;;;;;;12.46;100.00;95532.84;1027367;28;19958;-75
2022/05/25 00:31:22;;;;;;;;;;;;;;;12.46;100.00;95538.88;1027635;28;19945;-72
2022/05/25 00:31:53;;;;;;;;;;;;;;;12.45;100.00;95534.69;1035639;28;19909;-74
2022/05/25 00:32:23;;;;;;;;;;;;;;;12.45;100.00;95534.69;1027343;28;20026;-75
2022/05/25 00:32:53;;;;;;;;;;;;;;;12.45;100.00;95534.69;1023501;29;20426;-72
2022/05/25 00:33:24;;;;;;;;;;;;;;;12.46;100.00;95530.22;1019674;29;19914;-72
2022/05/25 00:33:54;;;;;;;;;;;;;;;12.45;100.00;95526.81;1023567;28;20025;-74
2022/05/25 00:34:24;;;;;;;;;;;;;;;12.44;100.00;95527.88;1030102;28;19916;-73
2022/05/25 00:34:55;;;;;;;;;;;;;;;12.46;100.00;95525.72;1031528;28;19914;-75
2022/05/25 00:35:25;;;;;;;;;;;;;;;12.47;100.00;95527.31;1031686;28;19917;-73
2022/05/25 00:35:56;;;;;;;;;;;;;;;12.46;100.00;95528.38;1028688;28;20074;-74
2022/05/25 00:36:27;;;;;;;;;;;;;;;12.46;100.00;95525.72;1031551;28;19914;-72
2022/05/25 00:36:57;;;;;;;;;;;;;;;12.45;100.00;95524.19;1031521;28;19905;-73
2022/05/25 00:37:27;;;;;;;;;;;;;;;12.45;100.00;95524.19;1027796;28;19994;-73
2022/05/25 00:37:58;;;;;;;;;;;;;;;12.46;100.00;95520.47;1031554;28;19921;-74
2022/05/25 00:38:29;;;;;;;;;;;;;;;12.46;100.00;95524.94;1031666;28;20378;-71
2022/05/25 00:38:59;;;;;;;;;;;;;;;12.46;100.00;95524.94;1027345;28;19914;-74
2022/05/25 00:39:29;;;;;;;;;;;;;;;12.45;100.00;95524.19;1027339;28;20004;-74
2022/05/25 00:40:00;;;;;;;;;;;;;;;12.44;100.00;95525.25;1019165;29;20364;-73
2022/05/25 00:40:46;;;;;;;;;;;;;;;12.44;100.00;95527.88;1018232;29;20393;-73
2022/05/25 00:41:16;;;;;;;;;;;;;;;12.45;100.00;95526.81;1023371;29;19911;-75
2022/05/25 00:41:46;;;;;;;;;;;;;;;12.45;100.00;95529.44;1023728;28;19987;-73
2022/05/25 00:42:20;;;;;;;;;;;;;;;12.44;100.00;95530.50;1029595;28;19906;-73
2022/05/25 00:42:54;;;;;;;;;;;;;;;12.45;100.00;95534.69;1026033;28;19917;-73
2022/05/25 00:43:24;;;;;;;;;;;;;;;12.46;100.00;95527.59;1028202;28;19910;-74
2022/05/25 00:43:55;;;;;;;;;;;;;;;12.47;100.00;95532.59;1027568;28;19910;-73
2022/05/25 00:44:25;;;;;;;;;;;;;;;12.48;100.00;95536.00;1023406;29;19920;-74
2022/05/25 00:44:56;;;;;;;;;;;;;;;12.46;100.00;95527.59;1023511;28;20269;-73
2022/05/25 00:45:27;;;;;;;;;;;;;;;12.46;100.00;95532.84;1031206;28;19949;-74
2022/05/25 00:45:59;;;;;;;;;;;;;;;12.46;100.00;95531.00;1027642;28;19913;-73
2022/05/25 00:46:29;;;;;;;;;;;;;;;12.45;100.00;95534.69;1027097;28;19906;-73
2022/05/25 00:46:59;;;;;;;;;;;;;;;12.45;100.00;95534.69;1023507;29;19928;-75
2022/05/25 00:47:30;;;;;;;;;;;;;;;12.45;100.00;95537.34;1015802;29;19918;-76
2022/05/25 00:48:00;;;;;;;;;;;;;;;12.45;100.00;95539.97;1023375;29;19922;-73
2022/05/25 00:48:44;;;;;;;;;;;;;;;12.44;100.00;95545.50;1023520;29;19913;-73
2022/05/25 00:49:22;;;;;;;;;;;;;;;12.44;100.00;95541.03;1019438;29;19907;-73
2022/05/25 00:49:52;;;;;;;;;;;;;;;12.44;100.00;95543.66;1017559;29;19911;-73
2022/05/25 00:50:22;;;;;;;;;;;;;;;12.44;100.00;95548.94;1018352;29;20445;-73
2022/05/25 00:51:45;;;;;;;;;;;;;;;12.45;100.00;95541.81;1022071;29;19946;-75
2022/05/25 00:52:16;;;;;;;;;;;;;;;12.45;100.00;95545.22;1019693;29;19913;-74
2022/05/25 00:52:47;;;;;;;;;;;;;;;12.45;100.00;95544.44;1018400;29;20375;-74
2022/05/25 00:53:17;;;;;;;;;;;;;;;12.45;100.00;95537.34;1023336;29;19974;-74
2022/05/25 00:53:58;;;;;;;;;;;;;;;12.46;100.00;95541.53;1023654;28;20465;-73
2022/05/25 00:54:36;;;;;;;;;;;;;;;12.46;100.00;95546.78;1024968;28;20274;-72
2022/05/25 00:55:06;;;;;;;;;;;;;;;12.48;100.00;95542.03;1024255;28;20605;-74
2022/05/25 00:55:39;;;;;;;;;;;;;;;12.50;100.00;95541.75;1019426;29;19918;-72
2022/05/25 00:56:12;;;;;;;;;;;;;;;12.49;100.00;95542.81;1023016;29;19933;-75
2022/05/25 00:56:44;;;;;;;;;;;;;;;12.49;100.00;95548.09;1024379;28;19911;-75
2022/05/25 00:57:20;;;;;;;;;;;;;;;12.48;100.00;95555.19;1024070;28;19907;-73
2022/05/25 00:57:50;;;;;;;;;;;;;;;12.48;100.00;95557.06;1023340;29;19917;-75
2022/05/25 00:58:21;;;;;;;;;;;;;;;12.47;100.00;95553.63;1019410;29;19907;-72
2022/05/25 00:58:59;;;;;;;;;;;;;;;12.47;100.00;95558.91;1023284;29;19903;-72
2022/05/25 00:59:31;;;;;;;;;;;;;;;12.48;100.00;95560.47;1020231;29;19918;-73
2022/05/25 01:00:04;;;;;;;;;;;;;;;12.47;100.00;95552.81;1014773;29;19911;-74
2022/05/25 01:00:34;;;;;;;;;;;;;;;12.47;100.00;95558.91;1017249;29;19918;-74
2022/05/25 01:01:05;;;;;;;;;;;;;;;12.47;100.00;95560.72;1020183;29;20404;-73
2022/05/25 01:01:35;;;;;;;;;;;;;;;12.46;100.00;95557.31;1019494;29;19911;-76
2022/05/25 01:02:05;;;;;;;;;;;;;;;12.44;100.00;95564.72;1019436;29;20452;-73
2022/05/25 01:02:53;;;;;;;;;;;;;;;12.46;100.00;95567.06;1023652;29;19921;-73
2022/05/25 01:03:24;;;;;;;;;;;;;;;12.47;100.00;95563.34;1024073;28;19961;-73
2022/05/25 01:03:54;;;;;;;;;;;;;;;12.45;100.00;95563.66;1029740;28;19910;-73
2022/05/25 01:04:24;;;;;;;;;;;;;;;12.48;100.00;95570.22;1027426;28;20773;-73
2022/05/25 01:04:55;;;;;;;;;;;;;;;12.46;100.00;95573.09;1027638;28;19921;-73
2022/05/25 01:05:29;;;;;;;;;;;;;;;12.46;100.00;95567.06;1023425;29;19910;-72
2022/05/25 01:06:01;;;;;;;;;;;;;;;12.44;100.00;95569.97;1019470;29;19923;-72
2022/05/25 01:06:32;;;;;;;;;;;;;;;12.44;100.00;95572.63;1020181;29;20415;-74
2022/05/25 01:07:17;;;;;;;;;;;;;;;12.44;100.00;95575.25;1025922;28;19906;-77
2022/05/25 01:07:48;;;;;;;;;;;;;;;12.44;100.00;95569.16;1035614;28;19913;-72
2022/05/25 01:08:38;;;;;;;;;;;;;;;12.43;100.00;95576.28;1035755;28;19909;-73
2022/05/25 01:09:14;;;;;;;;;;;;;;;12.42;100.00;95577.34;1035537;28;20446;-73
2022/05/25 01:09:45;;;;;;;;;;;;;;;12.42;100.00;95577.34;1034850;28;19992;-73
2022/05/25 01:10:18;;;;;;;;;;;;;;;12.42;100.00;95577.34;1031071;28;20289;-73
2022/05/25 01:10:48;;;;;;;;;;;;;;;12.43;100.00;95578.91;1032583;28;20486;-72
2022/05/25 01:11:42;;;;;;;;;;;;;;;12.43;100.00;95573.66;1035545;28;20020;-73
2022/05/25 01:12:18;;;;;;;;;;;;;;;12.43;100.00;95581.56;1015186;29;20022;-74
2022/05/25 01:13:03;;;;;;;;;;;;;;;12.45;100.00;95581.28;1019184;29;19903;-75
2022/05/25 01:13:39;;;;;;;;;;;;;;;12.45;100.00;95576.03;1032950;28;19928;-72
2022/05/25 01:14:10;;;;;;;;;;;;;;;12.44;100.00;95577.06;1035225;28;19906;-73
2022/05/25 01:14:44;;;;;;;;;;;;;;;12.45;100.00;95576.03;1031361;28;20063;-75
2022/05/25 01:15:19;;;;;;;;;;;;;;;12.45;100.00;95573.41;1023260;28;19911;-73
2022/05/25 01:15:57;;;;;;;;;;;;;;;12.45;100.00;95571.53;1024677;28;19961;-74
2022/05/25 01:16:36;;;;;;;;;;;;;;;12.46;100.00;95575.72;1021403;29;19976;-72
2022/05/25 01:17:10;;;;;;;;;;;;;;;12.46;100.00;95575.72;1028972;28;19917;-74
2022/05/25 01:17:57;;;;;;;;;;;;;;;12.47;100.00;95574.69;1027418;28;20461;-74
2022/05/25 01:18:47;;;;;;;;;;;;;;;12.47;100.00;95579.97;1030871;28;20396;-73
2022/05/25 01:19:18;;;;;;;;;;;;;;;12.47;100.00;95577.31;1031868;28;19909;-75
2022/05/25 01:20:06;;;;;;;;;;;;;;;12.46;100.00;95573.09;1034760;28;19906;-74
2022/05/25 01:20:43;;;;;;;;;;;;;;;12.46;100.00;95573.09;1035348;28;19972;-73
2022/05/25 01:21:35;;;;;;;;;;;;;;;12.46;100.00;95572.31;1031436;28;19909;-73
2022/05/25 01:22:13;;;;;;;;;;;;;;;12.45;100.00;95571.53;1031158;28;19909;-74
2022/05/25 01:22:58;;;;;;;;;;;;;;;12.45;100.00;95573.41;1031164;28;19905;-74
2022/05/25 01:23:50;;;;;;;;;;;;;;;12.44;100.00;95574.44;1027236;28;19914;-72
2022/05/25 01:24:20;;;;;;;;;;;;;;;12.41;100.00;95570.53;1024946;28;19911;-73
2022/05/25 01:24:59;;;;;;;;;;;;;;;12.43;100.00;95573.66;1031142;28;20372;-73
2022/05/25 01:25:42;;;;;;;;;;;;;;;12.42;100.00;95574.72;1035527;28;19956;-72
2022/05/25 01:26:28;;;;;;;;;;;;;;;12.42;100.00;95581.84;1030616;28;19910;-71
2022/05/25 01:27:04;;;;;;;;;;;;;;;12.41;100.00;95573.16;1027285;28;19908;-72
2022/05/25 01:27:35;;;;;;;;;;;;;;;12.40;100.00;95576.06;1031397;28;19913;-71
2022/05/25 01:28:21;;;;;;;;;;;;;;;12.39;100.00;95580.53;1030480;28;20076;-72
2022/05/25 01:28:51;;;;;;;;;;;;;;;12.39;100.00;95575.28;1034028;28;19956;-73
2022/05/25 01:29:22;;;;;;;;;;;;;;;12.38;100.00;95576.34;1035347;28;19955;-77
2022/05/25 01:29:55;;;;;;;;;;;;;;;12.38;100.00;95576.34;1034960;28;19948;-75
2022/05/25 01:30:30;;;;;;;;;;;;;;;12.38;100.00;95575.56;1035246;28;20007;-75
2022/05/25 01:31:01;;;;;;;;;;;;;;;12.37;100.00;95582.66;1031189;28;20557;-75
2022/05/25 01:31:41;;;;;;;;;;;;;;;12.38;100.00;95583.47;1027578;28;19917;-73
2022/05/25 01:32:20;;;;;;;;;;;;;;;12.38;100.00;95581.63;1021188;29;20562;-73
2022/05/25 01:32:56;;;;;;;;;;;;;;;12.37;100.00;95580.03;1029341;28;19932;-75
2022/05/25 01:33:27;;;;;;;;;;;;;;;12.36;100.00;95577.69;1031431;28;19929;-72
2022/05/25 01:34:06;;;;;;;;;;;;;;;12.35;100.00;95582.16;1029399;28;19934;-75
2022/05/25 01:34:44;;;;;;;;;;;;;;;12.36;100.00;95580.31;1027484;28;20336;-72
2022/05/25 01:35:22;;;;;;;;;;;;;;;12.36;100.00;95577.69;1027281;28;19907;-73
2022/05/25 01:35:58;;;;;;;;;;;;;;;12.40;100.00;95584.72;1034513;28;19910;-75
2022/05/25 01:36:33;;;;;;;;;;;;;;;12.38;100.00;95584.25;1035432;28;19917;-72
2022/05/25 01:37:06;;;;;;;;;;;;;;;12.37;100.00;95574.75;1032648;28;19906;-72
2022/05/25 01:37:51;;;;;;;;;;;;;;;12.36;100.00;95578.47;1027284;28;20456;-72
2022/05/25 01:38:23;;;;;;;;;;;;;;;12.35;100.00;95574.28;1023361;28;19911;-72
2022/05/25 01:38:58;;;;;;;;;;;;;;;12.36;100.00;95575.81;1021953;29;19907;-72
2022/05/25 01:39:29;;;;;;;;;;;;;;;12.37;100.00;95574.75;1021918;28;19910;-73
2022/05/25 01:40:07;;;;;;;;;;;;;;;12.36;100.00;95583.72;1023761;28;20626;-74
2022/05/25 01:40:39;;;;;;;;;;;;;;;12.37;100.00;95569.50;1027545;28;19957;-75
2022/05/25 01:41:31;;;;;;;;;;;;;;;12.38;100.00;95576.34;1022138;28;19922;-73
2022/05/25 01:42:10;;;;;;;;;;;;;;;12.42;100.00;95577.34;1019457;29;19911;-74
2022/05/25 01:42:42;;;;;;;;;;;;;;;12.39;100.00;95577.13;1017570;29;19914;-73
2022/05/25 01:43:19;;;;;;;;;;;;;;;12.38;100.00;95580.84;1026938;28;20292;-72
2022/05/25 01:43:57;;;;;;;;;;;;;;;12.37;100.00;95580.03;1025377;28;19906;-76
2022/05/25 01:44:32;;;;;;;;;;;;;;;12.37;100.00;95580.03;1022962;28;20432;-73
2022/05/25 01:45:03;;;;;;;;;;;;;;;12.36;100.00;95586.34;1025465;28;19911;-73
2022/05/25 01:45:34;;;;;;;;;;;;;;;12.39;100.00;95583.16;1024586;28;19918;-74
2022/05/25 01:46:06;;;;;;;;;;;;;;;12.38;100.00;95586.88;1027571;28;19910;-72
2022/05/25 01:46:37;;;;;;;;;;;;;;;12.40;100.00;95590.00;1023398;29;20403;-72
2022/05/25 01:47:11;;;;;;;;;;;;;;;12.41;100.00;95586.31;1023290;29;19911;-73
2022/05/25 01:47:42;;;;;;;;;;;;;;;12.42;100.00;95589.72;1022933;29;19969;-73
2022/05/25 01:48:12;;;;;;;;;;;;;;;12.40;100.00;95586.59;1020719;28;19981;-72
2022/05/25 01:48:43;;;;;;;;;;;;;;;12.37;100.00;95580.03;1019706;29;20652;-74
2022/05/25 01:49:20;;;;;;;;;;;;;;;12.35;100.00;95587.44;1019948;29;19907;-74
2022/05/25 01:49:51;;;;;;;;;;;;;;;12.35;100.00;95586.66;1019267;29;19918;-73
2022/05/25 01:50:23;;;;;;;;;;;;;;;12.35;100.00;95587.44;1016486;29;20412;-71
2022/05/25 01:50:57;;;;;;;;;;;;;;;12.33;100.00;95586.91;1019456;29;19907;-73
2022/05/25 01:51:28;;;;;;;;;;;;;;;12.35;100.00;95592.69;1023921;28;19949;-72
2022/05/25 01:52:05;;;;;;;;;;;;;;;12.35;100.00;95594.53;1027971;28;19918;-73
2022/05/25 01:52:37;;;;;;;;;;;;;;;12.35;100.00;95595.31;1027170;28;19921;-75
2022/05/25 01:53:07;;;;;;;;;;;;;;;12.36;100.00;95599.50;1022910;28;19915;-73
2022/05/25 01:53:40;;;;;;;;;;;;;;;12.36;100.00;95598.72;1023222;29;20001;-74
2022/05/25 01:54:11;;;;;;;;;;;;;;;12.36;100.00;95599.50;1027257;28;19910;-75
2022/05/25 01:54:42;;;;;;;;;;;;;;;12.36;100.00;95599.50;1024243;28;19921;-74
2022/05/25 01:55:14;;;;;;;;;;;;;;;12.36;100.00;95594.25;1027868;28;20391;-73
2022/05/25 01:55:51;;;;;;;;;;;;;;;12.36;100.00;95596.88;1025713;28;19994;-75
2022/05/25 01:56:21;;;;;;;;;;;;;;;12.35;100.00;95597.94;1024564;28;19990;-75
2022/05/25 01:56:56;;;;;;;;;;;;;;;12.35;100.00;95600.59;1024644;28;20103;-72
2022/05/25 01:57:31;;;;;;;;;;;;;;;12.34;100.00;95600.84;1025738;28;20622;-76
2022/05/25 01:58:08;;;;;;;;;;;;;;;12.35;100.00;95605.84;1023230;28;19903;-72
2022/05/25 01:58:39;;;;;;;;;;;;;;;12.36;100.00;95606.63;1019581;29;19903;-72
2022/05/25 01:59:09;;;;;;;;;;;;;;;12.36;100.00;95598.72;1023069;28;20623;-73
2022/05/25 01:59:41;;;;;;;;;;;;;;;12.32;100.00;95603.75;1024854;28;19922;-73
2022/05/25 02:00:25;;;;;;;;;;;;;;;12.35;100.00;95602.44;1027870;28;19906;-72
2022/05/25 02:00:56;;;;;;;;;;;;;;;12.36;100.00;95599.50;1027901;28;19949;-74
2022/05/25 02:01:26;;;;;;;;;;;;;;;12.39;100.00;95598.19;1025601;28;20293;-72
2022/05/25 02:04:24;;;;;;;;;;;;;;;12.35;100.00;95597.16;1035853;28;19948;-71
2022/05/25 02:04:54;;;;;;;;;;;;;;;12.36;100.00;95593.47;1036149;28;19905;-76
2022/05/25 02:05:25;;;;;;;;;;;;;;;12.35;100.00;95595.31;1031743;28;19906;-74
2022/05/25 02:06:13;;;;;;;;;;;;;;;12.32;100.00;95590.59;1027865;28;19997;-73
2022/05/25 02:07:04;;;;;;;;;;;;;;;12.31;100.00;95591.69;1027617;28;19902;-73
2022/05/25 02:07:43;;;;;;;;;;;;;;;12.26;100.00;95594.34;1032976;28;19902;-74
2022/05/25 02:08:18;;;;;;;;;;;;;;;12.26;100.00;95589.84;1035556;28;20406;-75
2022/05/25 02:08:48;;;;;;;;;;;;;;;12.24;100.00;95583.31;1031666;28;19912;-74
2022/05/25 02:09:28;;;;;;;;;;;;;;;12.25;100.00;95592.78;1033566;28;19949;-73
2022/05/25 02:10:04;;;;;;;;;;;;;;;12.24;100.00;95589.38;1035056;28;19902;-73
2022/05/25 02:10:37;;;;;;;;;;;;;;;12.21;100.00;95595.19;1035910;28;19910;-73
2022/05/25 02:11:08;;;;;;;;;;;;;;;12.22;100.00;95591.47;1039848;28;19901;-72
2022/05/25 02:11:39;;;;;;;;;;;;;;;12.23;100.00;95589.63;1038112;28;20016;-73
2022/05/25 02:12:20;;;;;;;;;;;;;;;12.21;100.00;95592.53;1031428;28;19909;-73
2022/05/25 02:12:50;;;;;;;;;;;;;;;12.24;100.00;95591.22;1026333;28;19910;-74
2022/05/25 02:13:23;;;;;;;;;;;;;;;12.23;100.00;95587.78;1029019;28;19961;-74
2022/05/25 02:14:12;;;;;;;;;;;;;;;12.21;100.00;95594.41;1029554;28;19942;-72
2022/05/25 02:14:48;;;;;;;;;;;;;;;12.20;100.00;95593.59;1035038;28;20750;-73
2022/05/25 02:15:25;;;;;;;;;;;;;;;12.22;100.00;95591.47;1039751;28;19915;-74
2022/05/25 02:16:04;;;;;;;;;;;;;;;12.22;100.00;95588.06;1039956;28;20401;-73
2022/05/25 02:16:46;;;;;;;;;;;;;;;12.23;100.00;95598.31;1032924;28;20009;-74
2022/05/25 02:17:31;;;;;;;;;;;;;;;12.24;100.00;95591.22;1028074;28;19914;-77
2022/05/25 02:18:13;;;;;;;;;;;;;;;12.22;100.00;95588.06;1031619;28;19913;-77
2022/05/25 02:18:45;;;;;;;;;;;;;;;12.21;100.00;95597.03;1030896;28;19948;-74
2022/05/25 02:19:16;;;;;;;;;;;;;;;12.19;100.00;95584.13;1031481;28;19914;-74
2022/05/25 02:20:00;;;;;;;;;;;;;;;12.20;100.00;95590.19;1031086;28;19914;-74
2022/05/25 02:20:59;;;;;;;;;;;;;;;12.21;100.00;95587.28;1025810;28;20684;-74
2022/05/25 02:21:30;;;;;;;;;;;;;;;12.20;100.00;95584.91;1019447;29;20740;-73
2022/05/25 02:22:09;;;;;;;;;;;;;;;12.20;100.00;95590.19;1027671;28;19960;-72
2022/05/25 02:22:41;;;;;;;;;;;;;;;12.18;100.00;95582.56;1027763;28;19945;-73
2022/05/25 02:23:14;;;;;;;;;;;;;;;12.21;100.00;95589.13;1020931;29;20001;-74
2022/05/25 02:23:50;;;;;;;;;;;;;;;12.22;100.00;95580.19;1017243;29;19910;-73
2022/05/25 02:24:25;;;;;;;;;;;;;;;12.21;100.00;95586.50;1017497;29;19911;-74
2022/05/25 02:24:58;;;;;;;;;;;;;;;12.21;100.00;95586.50;1023414;28;19930;-73
2022/05/25 02:25:36;;;;;;;;;;;;;;;12.18;100.00;95592.31;1023687;29;19946;-72
2022/05/25 02:26:08;;;;;;;;;;;;;;;12.16;100.00;95589.16;1021761;29;20672;-73
2022/05/25 02:26:39;;;;;;;;;;;;;;;12.17;100.00;95585.47;1021386;29;20019;-74
2022/05/25 02:27:15;;;;;;;;;;;;;;;12.17;100.00;95588.09;1020450;29;20365;-73
2022/05/25 02:27:53;;;;;;;;;;;;;;;12.18;100.00;95589.69;1024726;28;19970;-74
2022/05/25 02:28:24;;;;;;;;;;;;;;;12.19;100.00;95589.41;1025482;28;19903;-73
2022/05/25 02:28:55;;;;;;;;;;;;;;;12.19;100.00;95593.88;1023635;28;19921;-73
2022/05/25 02:29:26;;;;;;;;;;;;;;;12.18;100.00;95595.72;1024618;28;20296;-74
2022/05/25 02:29:57;;;;;;;;;;;;;;;12.18;100.00;95593.09;1027302;28;20061;-74
2022/05/25 02:30:28;;;;;;;;;;;;;;;12.12;100.00;95596.81;1031904;28;20395;-73
2022/05/25 02:30:59;;;;;;;;;;;;;;;12.10;100.00;95600.78;1031619;28;20555;-74
2022/05/25 02:31:35;;;;;;;;;;;;;;;12.10;100.00;95590.25;1020113;29;20033;-74
2022/05/25 02:32:08;;;;;;;;;;;;;;;12.09;100.00;95607.09;1019607;29;19950;-73
2022/05/25 02:32:39;;;;;;;;;;;;;;;12.09;100.00;95602.63;1021689;29;19914;-75
2022/05/25 02:33:10;;;;;;;;;;;;;;;12.07;100.00;95604.75;1024741;28;19965;-75
2022/05/25 02:33:44;;;;;;;;;;;;;;;12.08;100.00;95602.91;1024486;28;20565;-76
2022/05/25 02:34:16;;;;;;;;;;;;;;;12.07;100.00;95603.97;1029140;28;20010;-73
2022/05/25 02:34:47;;;;;;;;;;;;;;;12.02;100.00;95605.56;1027637;28;19920;-74
2022/05/25 02:35:17;;;;;;;;;;;;;;;12.02;100.00;95605.56;1020361;29;19954;-73
2022/05/25 02:35:51;;;;;;;;;;;;;;;12.05;100.00;95608.72;1019706;29;19911;-73
2022/05/25 02:36:21;;;;;;;;;;;;;;;12.03;100.00;95606.34;1024050;28;19922;-75
2022/05/25 02:36:51;;;;;;;;;;;;;;;12.05;100.00;95611.34;1024117;28;19949;-73
2022/05/25 02:37:22;;;;;;;;;;;;;;;12.08;100.00;95610.81;1027319;28;19910;-74
2022/05/25 02:37:52;;;;;;;;;;;;;;;12.04;100.00;95607.94;1027534;28;19914;-73
2022/05/25 02:38:24;;;;;;;;;;;;;;;12.04;100.00;95607.94;1023702;28;20300;-75
2022/05/25 02:38:54;;;;;;;;;;;;;;;12.01;100.00;95613.75;1023918;28;19910;-74
2022/05/25 02:39:25;;;;;;;;;;;;;;;11.96;100.00;95606.66;1023600;28;19994;-75
2022/05/25 02:39:56;;;;;;;;;;;;;;;11.97;100.00;95607.44;1027163;28;20400;-73
2022/05/25 02:40:27;;;;;;;;;;;;;;;11.96;100.00;95611.94;1022536;28;19911;-73
2022/05/25 02:41:10;;;;;;;;;;;;;;;11.95;100.00;95605.09;1023660;28;19940;-74
2022/05/25 02:41:50;;;;;;;;;;;;;;;11.97;100.00;95616.16;1023463;28;19915;-74
2022/05/25 02:42:20;;;;;;;;;;;;;;;11.95;100.00;95612.22;1025763;28;19910;-74
2022/05/25 02:42:51;;;;;;;;;;;;;;;11.95;100.00;95613.00;1022555;28;20392;-73
2022/05/25 02:43:22;;;;;;;;;;;;;;;11.93;100.00;95609.06;1021029;29;19966;-74
2022/05/25 02:43:52;;;;;;;;;;;;;;;11.92;100.00;95610.91;1019576;29;19919;-73
2022/05/25 02:44:25;;;;;;;;;;;;;;;11.89;100.00;95603.56;1020372;28;19914;-75
2022/05/25 02:44:56;;;;;;;;;;;;;;;11.89;100.00;95603.56;1024057;28;20557;-76
2022/05/25 02:45:26;;;;;;;;;;;;;;;11.90;100.00;95609.59;1023748;28;19918;-73
2022/05/25 02:45:58;;;;;;;;;;;;;;;11.89;100.00;95608.03;1023836;28;20316;-73
2022/05/25 02:46:28;;;;;;;;;;;;;;;11.89;100.00;95606.19;1023655;29;19911;-73
2022/05/25 02:46:58;;;;;;;;;;;;;;;11.87;100.00;95605.69;1023838;28;20407;-73
2022/05/25 02:47:29;;;;;;;;;;;;;;;11.86;100.00;95605.97;1024048;28;19984;-73
2022/05/25 02:47:59;;;;;;;;;;;;;;;11.74;100.00;95593.91;1033959;28;19913;-75
2022/05/25 02:48:29;;;;;;;;;;;;;;;11.87;100.00;95602.25;1031637;28;19993;-74
2022/05/25 02:49:00;;;;;;;;;;;;;;;11.86;100.00;95600.69;1031615;28;20292;-75
2022/05/25 02:49:30;;;;;;;;;;;;;;;11.83;100.00;95607.25;1035462;28;19956;-72
2022/05/25 02:50:00;;;;;;;;;;;;;;;11.82;100.00;95604.91;1035002;28;19993;-74
2022/05/25 02:50:30;;;;;;;;;;;;;;;11.80;100.00;95603.34;1035610;28;20673;-73
2022/05/25 02:51:01;;;;;;;;;;;;;;;11.78;100.00;95602.81;1031692;28;19910;-74
2022/05/25 02:51:35;;;;;;;;;;;;;;;11.77;100.00;95609.16;1031155;28;19918;-75
2022/05/25 02:52:05;;;;;;;;;;;;;;;11.77;100.00;95609.16;1027981;28;19921;-75
2022/05/25 02:52:36;;;;;;;;;;;;;;;11.77;100.00;95608.38;1031909;28;19910;-75
2022/05/25 02:53:10;;;;;;;;;;;;;;;11.76;100.00;95601.53;1030890;28;19926;-74
2022/05/25 02:53:40;;;;;;;;;;;;;;;11.73;100.00;95608.09;1028171;28;19930;-75
2022/05/25 02:54:10;;;;;;;;;;;;;;;11.73;100.00;95609.94;1027471;28;19969;-74
2022/05/25 02:54:40;;;;;;;;;;;;;;;11.75;100.00;95610.47;1027998;28;20270;-74
2022/05/25 02:55:11;;;;;;;;;;;;;;;11.73;100.00;95607.31;1031620;28;19984;-74
2022/05/25 02:55:41;;;;;;;;;;;;;;;11.64;100.00;95593.97;1031692;28;20387;-74
2022/05/25 02:56:11;;;;;;;;;;;;;;;11.74;100.00;95614.16;1035392;28;19913;-75